Time;durP1;ratioP1;P1;durP2;ratioP2;P2;SDS_P1;SDS_P2;PMS_P1;PMS_P2;Temp;Humidity;BMP_temperature;BMP_pressure;BME280_temperature;BME280_humidity;BME280_pressure;Samples;Min_cycle;Max_cycle;Signal;HPM_P1;HPM_P2
2022/12/02 00:01:39;;;;;;;42.57;19.97;;;;;;;0.18;100.00;101851.78;4999111;28;20205;-75
2022/12/02 00:04:19;;;;;;;39.43;19.73;;;;;;;0.18;100.00;101858.63;4985246;28;20688;-75
2022/12/02 00:06:45;;;;;;;35.47;17.40;;;;;;;0.17;100.00;101852.59;5007177;28;20209;-75
2022/12/02 00:09:19;;;;;;;39.67;19.27;;;;;;;0.18;100.00;101850.94;5008631;28;20228;-75
2022/12/02 00:11:47;;;;;;;40.53;20.33;;;;;;;0.18;100.00;101853.50;5005023;28;20215;-75
2022/12/02 00:14:20;;;;;;;39.20;18.53;;;;;;;0.16;100.00;101850.00;4997250;28;20286;-75
2022/12/02 00:16:46;;;;;;;37.97;18.63;;;;;;;0.17;100.00;101846.59;5000611;28;20189;-75
2022/12/02 00:19:12;;;;;;;38.07;20.00;;;;;;;0.17;100.00;101844.03;5000968;28;20275;-75
2022/12/02 00:21:40;;;;;;;40.47;20.00;;;;;;;0.17;100.00;101842.34;4989775;28;20235;-75
2022/12/02 00:24:07;;;;;;;38.73;20.17;;;;;;;0.18;100.00;101845.81;4980385;28;20189;-75
2022/12/02 00:26:33;;;;;;;40.37;20.00;;;;;;;0.17;100.00;101846.59;5002763;28;20564;-75
2022/12/02 00:29:00;;;;;;;40.63;19.77;;;;;;;0.16;100.00;101840.63;5074983;28;20255;-75
2022/12/02 00:31:28;;;;;;;37.00;19.20;;;;;;;0.17;100.00;101844.91;5006886;28;20201;-75
2022/12/02 00:33:55;;;;;;;36.13;18.13;;;;;;;0.17;100.00;101844.91;4999945;28;20565;-75
2022/12/02 00:36:21;;;;;;;41.00;19.53;;;;;;;0.16;100.00;101844.88;5007106;28;20478;-75
2022/12/02 00:38:49;;;;;;;37.53;18.00;;;;;;;0.17;100.00;101852.59;5006968;28;20249;-75
2022/12/02 00:41:16;;;;;;;39.40;19.60;;;;;;;0.17;100.00;101852.59;4982621;28;20270;-75
2022/12/02 00:46:33;;;;;;;38.20;19.00;;;;;;;0.17;100.00;101844.91;4988864;28;20225;-75
2022/12/02 00:49:04;;;;;;;40.23;18.50;;;;;;;0.17;100.00;101850.03;5008556;28;20217;-75
2022/12/02 00:51:30;;;;;;;42.90;18.80;;;;;;;0.15;100.00;101845.69;4987866;28;20216;-75
2022/12/02 00:53:58;;;;;;;37.67;19.57;;;;;;;0.16;100.00;101837.19;4994796;28;20200;-75
2022/12/02 00:56:25;;;;;;;35.53;18.00;;;;;;;0.16;100.00;101838.03;4996234;28;20198;-75
2022/12/02 00:58:51;;;;;;;39.87;18.60;;;;;;;0.16;100.00;101839.75;4990267;28;20232;-75
2022/12/02 01:01:18;;;;;;;37.67;18.47;;;;;;;0.16;100.00;101843.19;5008434;28;20726;-75
2022/12/02 01:03:45;;;;;;;40.20;18.27;;;;;;;0.15;100.00;101836.28;5003249;28;20212;-75
2022/12/02 01:06:11;;;;;;;39.60;18.47;;;;;;;0.16;100.00;101832.91;5004086;28;20582;-75
2022/12/02 01:08:38;;;;;;;41.73;19.43;;;;;;;0.16;100.00;101826.91;5001384;28;20217;-75
2022/12/02 01:11:06;;;;;;;37.73;18.50;;;;;;;0.16;100.00;101835.47;4986556;28;21182;-75
2022/12/02 01:13:32;;;;;;;39.60;19.50;;;;;;;0.17;100.00;101836.34;4990256;28;20404;-75
2022/12/02 01:15:58;;;;;;;34.33;17.53;;;;;;;0.15;100.00;101827.72;5003337;28;20654;-75
2022/12/02 01:18:27;;;;;;;35.40;17.97;;;;;;;0.17;100.00;101828.66;4991742;28;20266;-75
2022/12/02 01:20:54;;;;;;;36.33;19.17;;;;;;;0.14;100.00;101826.88;4985953;28;20213;-75
2022/12/02 01:23:21;;;;;;;39.63;18.13;;;;;;;0.15;100.00;101825.16;4999660;28;20197;-75
2022/12/02 01:25:48;;;;;;;35.13;16.67;;;;;;;0.14;100.00;101833.66;4992761;28;20232;-75
2022/12/02 01:28:16;;;;;;;42.77;21.13;;;;;;;0.15;100.00;101831.16;4987214;28;20314;-75
2022/12/02 01:30:43;;;;;;;36.57;18.27;;;;;;;0.14;100.00;101834.56;4999968;28;20197;-75
2022/12/02 01:33:10;;;;;;;34.00;17.37;;;;;;;0.14;100.00;101832.00;4978759;28;20311;-75
2022/12/02 01:35:36;;;;;;;37.00;18.80;;;;;;;0.13;100.00;101824.25;5072206;28;20205;-75
2022/12/02 01:38:03;;;;;;;35.57;17.53;;;;;;;0.14;100.00;101832.00;5002062;28;20220;-75
2022/12/02 01:40:30;;;;;;;36.70;18.33;;;;;;;0.13;100.00;101821.69;4991430;28;20205;-75
2022/12/02 01:42:58;;;;;;;37.57;18.43;;;;;;;0.11;100.00;101820.75;4990540;28;20204;-75
2022/12/02 01:45:26;;;;;;;35.33;16.40;;;;;;;0.11;100.00;101820.75;5010653;28;20302;-75
2022/12/02 01:47:53;;;;;;;35.43;17.20;;;;;;;0.12;100.00;101833.63;5008726;28;20704;-75
2022/12/02 01:50:20;;;;;;;35.33;18.10;;;;;;;0.13;100.00;101829.38;4995348;28;20675;-75
2022/12/02 01:52:47;;;;;;;40.63;18.93;;;;;;;0.12;100.00;101828.50;4995278;28;20197;-75
2022/12/02 01:55:22;;;;;;;37.23;17.23;;;;;;;0.11;100.00;101824.19;4991623;28;20220;-75
2022/12/02 01:57:49;;;;;;;36.07;17.73;;;;;;;0.11;100.00;101816.50;4988962;28;20770;-75
2022/12/02 02:00:16;;;;;;;38.23;18.67;;;;;;;0.11;100.00;101819.06;4983923;28;20204;-75
2022/12/02 02:02:45;;;;;;;33.20;17.00;;;;;;;0.10;100.00;101816.44;4986614;28;20212;-75
2022/12/02 02:05:15;;;;;;;33.13;17.10;;;;;;;0.10;100.00;101819.00;4986225;28;20201;-74
2022/12/02 02:07:44;;;;;;;35.00;17.30;;;;;;;0.11;100.00;101821.63;4986894;28;20589;-75
2022/12/02 02:10:11;;;;;;;38.67;18.73;;;;;;;0.12;100.00;101820.81;4989452;28;20280;-75
2022/12/02 02:12:39;;;;;;;37.80;18.93;;;;;;;0.11;100.00;101813.91;4988361;28;20205;-75
2022/12/02 02:15:08;;;;;;;31.97;16.13;;;;;;;0.12;100.00;101810.56;4982219;28;20699;-75
2022/12/02 02:17:34;;;;;;;36.03;16.87;;;;;;;0.11;100.00;101807.94;4999244;28;20216;-75
2022/12/02 02:20:06;;;;;;;31.00;16.00;;;;;;;0.09;100.00;101806.97;4984992;28;20212;-75
2022/12/02 02:22:38;;;;;;;33.97;17.10;;;;;;;0.11;100.00;101813.91;4987795;28;20200;-75
2022/12/02 02:25:09;;;;;;;33.10;17.00;;;;;;;0.11;100.00;101813.91;4999182;28;20201;-75
2022/12/02 02:27:36;;;;;;;35.27;16.93;;;;;;;0.12;100.00;101817.34;4987361;28;20270;-75
2022/12/02 02:30:03;;;;;;;33.37;17.27;;;;;;;0.12;100.00;101818.25;4987203;28;20209;-75
2022/12/02 02:32:30;;;;;;;32.73;15.20;;;;;;;0.12;100.00;101812.22;4987121;28;20257;-75
2022/12/02 02:34:57;;;;;;;34.93;16.77;;;;;;;0.11;100.00;101826.75;4985361;28;20204;-75
2022/12/02 02:37:24;;;;;;;34.87;18.13;;;;;;;0.12;100.00;101813.13;4990577;28;20689;-75
2022/12/02 02:39:52;;;;;;;34.10;16.57;;;;;;;0.13;100.00;101816.53;4986133;28;20200;-75
2022/12/02 02:42:19;;;;;;;34.27;17.10;;;;;;;0.10;100.00;101814.72;4974690;28;20292;-75
2022/12/02 02:44:46;;;;;;;34.53;16.93;;;;;;;0.09;100.00;101810.44;5011815;28;20577;-75
2022/12/02 02:47:13;;;;;;;34.17;16.43;;;;;;;0.09;100.00;101807.88;5066869;28;20463;-75
2022/12/02 02:49:39;;;;;;;35.50;17.43;;;;;;;0.10;100.00;101807.03;4987120;28;20280;-75
2022/12/02 02:52:06;;;;;;;33.53;17.03;;;;;;;0.07;100.00;101808.63;4983631;28;20294;-75
2022/12/02 02:54:34;;;;;;;32.17;16.10;;;;;;;0.09;100.00;101812.09;4983143;28;20204;-75
2022/12/02 02:57:01;;;;;;;31.97;16.53;;;;;;;0.09;100.00;101810.44;4992151;28;20282;-75
2022/12/02 02:59:29;;;;;;;35.60;16.87;;;;;;;0.07;100.00;101809.50;4981312;28;20220;-75
2022/12/02 03:01:55;;;;;;;35.40;17.70;;;;;;;0.06;100.00;101810.31;4989114;28;20211;-75
2022/12/02 03:04:24;;;;;;;35.07;16.90;;;;;;;0.07;100.00;101813.75;5004035;28;20246;-75
2022/12/02 03:06:52;;;;;;;28.70;15.07;;;;;;;0.05;100.00;101815.38;5002507;28;20233;-75
2022/12/02 03:09:21;;;;;;;33.13;17.40;;;;;;;0.06;100.00;101805.19;4985681;28;20645;-75
2022/12/02 03:11:50;;;;;;;33.20;16.67;;;;;;;0.07;100.00;101806.94;4987592;28;20203;-75
2022/12/02 03:14:17;;;;;;;30.43;16.30;;;;;;;0.08;100.00;101808.69;4998311;28;20556;-75
2022/12/02 03:16:46;;;;;;;33.27;17.30;;;;;;;0.05;100.00;101808.56;4984680;28;20232;-74
2022/12/02 03:19:13;;;;;;;31.43;17.17;;;;;;;0.06;100.00;101809.44;4991247;28;20224;-75
2022/12/02 03:21:39;;;;;;;31.60;15.83;;;;;;;0.06;100.00;101806.88;5002104;28;20654;-75
2022/12/02 03:24:06;;;;;;;30.33;16.17;;;;;;;0.05;100.00;101808.56;5000995;28;20212;-75
2022/12/02 03:26:33;;;;;;;27.60;14.83;;;;;;;0.03;100.00;101817.88;4984688;28;20225;-75
2022/12/02 03:29:01;;;;;;;31.77;15.90;;;;;;;0.05;100.00;101817.94;4995091;28;20518;-75
2022/12/02 03:31:28;;;;;;;31.13;15.70;;;;;;;0.05;100.00;101817.94;4990494;28;20208;-75
2022/12/02 03:33:56;;;;;;;31.83;15.40;;;;;;;0.05;100.00;101810.25;4987443;28;20568;-75
2022/12/02 03:36:23;;;;;;;33.60;16.00;;;;;;;0.04;100.00;101819.66;4985061;28;20193;-75
2022/12/02 03:38:50;;;;;;;30.93;15.90;;;;;;;0.05;100.00;101803.44;4989283;28;20220;-75
2022/12/02 03:41:17;;;;;;;33.63;16.93;;;;;;;0.04;100.00;101801.69;4993136;28;20581;-75
2022/12/02 03:43:43;;;;;;;31.47;15.67;;;;;;;0.04;100.00;101794.00;5006284;28;20615;-75
2022/12/02 03:46:10;;;;;;;32.83;15.77;;;;;;;0.05;100.00;101798.28;5004646;28;20200;-75
2022/12/02 03:48:39;;;;;;;30.97;16.03;;;;;;;0.04;100.00;101800.84;4988067;28;20726;-75
2022/12/02 03:51:08;;;;;;;35.97;17.00;;;;;;;0.03;100.00;101804.22;5008491;28;20602;-75
2022/12/02 03:53:36;;;;;;;28.17;15.73;;;;;;;0.03;100.00;101805.06;5000451;28;20209;-75
2022/12/02 03:56:04;;;;;;;31.57;15.53;;;;;;;0.04;100.00;101805.97;5004140;28;20203;-75
2022/12/02 03:58:36;;;;;;;32.20;16.07;;;;;;;0.02;100.00;101800.78;4988503;28;20245;-75
2022/12/02 04:01:02;;;;;;;29.13;15.67;;;;;;;0.02;100.00;101792.19;4998940;28;20857;-75
2022/12/02 04:03:28;;;;;;;31.80;16.43;;;;;;;0.01;100.00;101793.88;4988059;28;20188;-75
2022/12/02 04:05:58;;;;;;;35.60;17.13;;;;;;;-0.01;100.00;101791.25;4985771;28;20214;-75
2022/12/02 04:08:25;;;;;;;30.73;15.67;;;;;;;0.01;100.00;101793.03;4982097;28;20236;-75
2022/12/02 04:10:52;;;;;;;34.87;16.20;;;;;;;0.00;100.00;101789.59;4995687;28;20223;-75
2022/12/02 04:13:18;;;;;;;32.93;15.73;;;;;;;-0.02;100.00;101786.97;4992328;28;20201;-75
2022/12/02 04:15:45;;;;;;;32.77;15.53;;;;;;;-0.01;100.00;101786.13;5007391;28;20204;-75
2022/12/02 04:18:11;;;;;;;31.87;16.80;;;;;;;-0.01;100.00;101782.72;5015191;28;20223;-75
2022/12/02 04:20:38;;;;;;;35.40;16.77;;;;;;;-0.03;100.00;101790.34;5007933;28;20193;-75
2022/12/02 04:23:04;;;;;;;35.67;15.77;;;;;;;-0.04;100.00;101778.31;5008844;28;20287;-75
2022/12/02 04:25:32;;;;;;;30.00;15.17;;;;;;;-0.08;100.00;101770.50;5005642;28;20201;-75
2022/12/02 04:27:58;;;;;;;36.60;16.03;;;;;;;-0.08;100.00;101767.94;4998043;28;20812;-74
2022/12/02 04:30:25;;;;;;;36.23;16.17;;;;;;;-0.09;100.00;101774.75;4987538;28;20221;-74
2022/12/02 04:32:51;;;;;;;32.97;15.10;;;;;;;-0.10;100.00;101772.13;5004173;28;20199;-74
2022/12/02 04:35:18;;;;;;;30.40;16.63;;;;;;;-0.10;100.00;101770.44;5006490;28;20370;-74
2022/12/02 04:37:44;;;;;;;34.40;16.80;;;;;;;-0.10;100.00;101773.00;4984591;28;20224;-74
2022/12/02 04:40:12;;;;;;;38.80;17.13;;;;;;;-0.10;100.00;101777.25;4991086;28;20562;-74
2022/12/02 04:42:40;;;;;;;34.47;16.13;;;;;;;-0.11;100.00;101784.06;4992923;28;20216;-74
2022/12/02 04:45:07;;;;;;;34.67;15.67;;;;;;;-0.11;100.00;101784.06;5011737;28;20230;-74
2022/12/02 04:47:34;;;;;;;34.40;15.90;;;;;;;-0.11;100.00;101778.06;5045121;28;20269;-74
2022/12/02 04:50:00;;;;;;;35.33;16.63;;;;;;;-0.11;100.00;101775.50;5005385;28;20613;-74
2022/12/02 04:52:27;;;;;;;28.50;14.40;;;;;;;-0.14;100.00;101766.03;4997653;28;20340;-74
2022/12/02 04:54:54;;;;;;;33.47;16.13;;;;;;;-0.12;100.00;101766.06;5007204;28;20200;-74
2022/12/02 04:57:20;;;;;;;34.37;15.07;;;;;;;-0.13;100.00;101756.63;4994568;28;20221;-74
2022/12/02 04:59:48;;;;;;;36.83;16.20;;;;;;;-0.13;100.00;101759.19;5003817;28;20203;-74
2022/12/02 05:02:15;;;;;;;32.57;16.10;;;;;;;-0.14;100.00;101755.78;4993158;28;20208;-74
2022/12/02 05:04:41;;;;;;;29.73;15.80;;;;;;;-0.15;100.00;101758.28;5005176;28;20196;-74
2022/12/02 05:07:08;;;;;;;32.20;15.20;;;;;;;-0.12;100.00;101759.25;5006359;28;20220;-74
2022/12/02 05:09:34;;;;;;;39.43;16.03;;;;;;;-0.13;100.00;101759.19;4992507;28;20202;-74
2022/12/02 05:12:04;;;;;;;32.13;15.43;;;;;;;-0.16;100.00;101759.06;5005596;28;20724;-74
2022/12/02 05:14:30;;;;;;;35.97;16.67;;;;;;;-0.15;100.00;101758.28;5005627;28;20205;-74
2022/12/02 05:16:58;;;;;;;34.57;16.23;;;;;;;-0.15;100.00;101769.38;5005371;28;20560;-74
2022/12/02 05:19:24;;;;;;;31.63;15.50;;;;;;;-0.13;100.00;101756.63;5005455;28;20576;-74
2022/12/02 05:21:50;;;;;;;33.80;15.90;;;;;;;-0.15;100.00;101759.13;5005174;28;20200;-74
2022/12/02 05:24:17;;;;;;;34.03;15.33;;;;;;;-0.16;100.00;101754.81;5001083;28;20201;-74
2022/12/02 05:26:43;;;;;;;35.03;16.53;;;;;;;-0.17;100.00;101752.22;4999564;28;20212;-74
2022/12/02 05:29:10;;;;;;;32.90;16.13;;;;;;;-0.17;100.00;101754.78;4999157;28;20306;-74
2022/12/02 05:31:36;;;;;;;33.93;15.80;;;;;;;-0.17;100.00;101759.91;4999268;28;20203;-74
2022/12/02 05:34:04;;;;;;;32.27;16.10;;;;;;;-0.17;100.00;101759.91;4990565;28;20232;-74
2022/12/02 05:36:30;;;;;;;42.27;17.30;;;;;;;-0.18;100.00;101764.16;5006369;28;20197;-74
2022/12/02 05:38:57;;;;;;;37.30;16.00;;;;;;;-0.20;100.00;101773.47;5005609;28;20225;-74
2022/12/02 05:41:23;;;;;;;39.00;16.30;;;;;;;-0.20;100.00;101774.34;5006843;28;20193;-74
2022/12/02 05:43:50;;;;;;;34.53;16.40;;;;;;;-0.17;100.00;101772.72;4995824;28;20721;-74
2022/12/02 05:46:18;;;;;;;32.13;16.23;;;;;;;-0.21;100.00;101766.63;4990523;28;20199;-74
2022/12/02 05:48:45;;;;;;;44.23;18.43;;;;;;;-0.23;100.00;101768.22;5005549;28;20634;-74
2022/12/02 05:51:16;;;;;;;33.60;15.97;;;;;;;-0.20;100.00;101766.66;4992982;28;20184;-74
2022/12/02 05:53:44;;;;;;;33.80;16.80;;;;;;;-0.20;100.00;101774.34;4989682;28;20204;-74
2022/12/02 05:56:18;;;;;;;37.70;18.47;;;;;;;-0.21;100.00;101767.50;4998112;28;20216;-74
2022/12/02 05:58:44;;;;;;;35.90;17.13;;;;;;;-0.20;100.00;101774.34;5005414;28;20572;-74
2022/12/02 06:01:20;;;;;;;36.70;17.37;;;;;;;-0.19;100.00;101775.25;5005481;28;20258;-74
2022/12/02 06:03:47;;;;;;;36.10;16.97;;;;;;;-0.22;100.00;101772.56;4985951;28;20211;-74
2022/12/02 06:06:15;;;;;;;38.30;18.17;;;;;;;-0.21;100.00;101758.94;4972749;28;20215;-74
2022/12/02 06:08:42;;;;;;;33.20;16.60;;;;;;;-0.20;100.00;101758.09;4983521;28;20399;-74
2022/12/02 06:11:24;;;;;;;36.67;16.67;;;;;;;-0.20;100.00;101765.78;4994760;28;20230;-74
2022/12/02 06:13:51;;;;;;;39.27;17.53;;;;;;;-0.24;100.00;101757.13;4985368;28;20246;-74
2022/12/02 06:16:25;;;;;;;39.03;18.23;;;;;;;-0.23;100.00;101755.41;5003855;28;20262;-74
2022/12/02 06:18:52;;;;;;;36.20;18.00;;;;;;;-0.23;100.00;101745.16;5003841;28;20246;-74
2022/12/02 06:21:22;;;;;;;34.63;17.33;;;;;;;-0.23;100.00;101752.84;4981424;28;20720;-74
2022/12/02 06:23:51;;;;;;;36.13;17.77;;;;;;;-0.22;100.00;101763.16;4985678;28;20200;-74
2022/12/02 06:26:20;;;;;;;35.80;17.97;;;;;;;-0.20;100.00;101763.22;4999778;28;20203;-74
2022/12/02 06:28:49;;;;;;;38.03;17.87;;;;;;;-0.22;100.00;101767.44;5005660;28;20301;-74
2022/12/02 06:31:20;;;;;;;35.67;17.43;;;;;;;-0.18;100.00;101768.41;5004548;28;20206;-74
2022/12/02 06:33:50;;;;;;;38.37;17.97;;;;;;;-0.21;100.00;101766.63;5005008;28;20223;-74
2022/12/02 06:36:22;;;;;;;38.17;15.67;;;;;;;-0.20;100.00;101774.34;4987287;28;20221;-74
2022/12/02 06:38:51;;;;;;;37.87;17.27;;;;;;;-0.18;100.00;101781.22;4994513;28;20585;-74
2022/12/02 06:41:21;;;;;;;33.37;17.13;;;;;;;-0.21;100.00;101774.31;4986927;28;20302;-74
2022/12/02 06:46:30;;;;;;;39.90;18.20;;;;;;;-0.20;100.00;101768.34;4986209;28;20362;-74
2022/12/02 06:48:57;;;;;;;33.37;16.37;;;;;;;-0.20;100.00;101776.91;5004708;28;20644;-74
2022/12/02 06:51:25;;;;;;;32.27;15.70;;;;;;;-0.18;100.00;101778.66;4986108;28;20377;-74
2022/12/02 06:53:51;;;;;;;35.57;17.07;;;;;;;-0.19;100.00;101767.53;4987431;28;20332;-74
2022/12/02 06:56:22;;;;;;;35.57;15.93;;;;;;;-0.18;100.00;101779.53;4999917;28;20208;-74
2022/12/02 06:58:55;;;;;;;34.10;15.37;;;;;;;-0.20;100.00;101778.59;4991442;28;20227;-74
2022/12/02 07:01:25;;;;;;;36.20;16.57;;;;;;;-0.24;100.00;101775.06;5004544;28;20455;-74
2022/12/02 07:04:05;;;;;;;36.43;17.10;;;;;;;-0.20;100.00;101781.16;4997922;28;20208;-73
2022/12/02 07:06:33;;;;;;;38.03;16.80;;;;;;;-0.20;100.00;101774.34;4992230;28;20439;-74
2022/12/02 07:09:06;;;;;;;40.20;17.90;;;;;;;-0.22;100.00;101773.41;4986223;28;20221;-74
2022/12/02 07:11:52;;;;;;;38.87;17.00;;;;;;;-0.23;100.00;101775.91;5005808;28;20202;-74
2022/12/02 07:14:28;;;;;;;37.63;16.23;;;;;;;-0.24;100.00;101769.06;5004964;28;20425;-74
2022/12/02 07:16:56;;;;;;;30.87;15.70;;;;;;;-0.22;100.00;101777.69;4988497;28;20627;-74
2022/12/02 07:19:33;;;;;;;36.00;15.83;;;;;;;-0.22;100.00;101763.16;5000917;28;20316;-74
2022/12/02 07:22:01;;;;;;;29.90;15.10;;;;;;;-0.22;100.00;101770.00;4989736;28;20242;-74
2022/12/02 07:24:27;;;;;;;37.93;16.13;;;;;;;-0.25;100.00;101765.59;4984843;28;20196;-74
2022/12/02 07:26:54;;;;;;;36.83;16.80;;;;;;;-0.24;100.00;101769.94;4980501;28;20217;-74
2022/12/02 07:29:28;;;;;;;30.83;15.07;;;;;;;-0.24;100.00;101775.06;5007101;28;20225;-74
2022/12/02 07:31:55;;;;;;;36.23;16.40;;;;;;;-0.23;100.00;101770.78;4993550;28;20203;-74
2022/12/02 07:34:21;;;;;;;39.17;17.97;;;;;;;-0.22;100.00;101762.31;5017170;28;20772;-74
2022/12/02 07:36:47;;;;;;;33.40;15.47;;;;;;;-0.24;100.00;101767.38;5007068;28;20216;-74
2022/12/02 07:39:15;;;;;;;34.13;15.07;;;;;;;-0.23;100.00;101764.00;4990032;28;20248;-74
2022/12/02 07:41:43;;;;;;;34.13;15.57;;;;;;;-0.23;100.00;101763.09;5007829;28;20224;-74
2022/12/02 07:44:09;;;;;;;38.20;17.17;;;;;;;-0.23;100.00;101776.81;4998623;28;20555;-73
2022/12/02 07:46:36;;;;;;;33.77;15.67;;;;;;;-0.24;100.00;101769.94;5020633;28;20696;-74
2022/12/02 07:49:02;;;;;;;35.57;15.47;;;;;;;-0.25;100.00;101773.28;4986045;28;20278;-74
2022/12/02 07:51:28;;;;;;;32.87;15.97;;;;;;;-0.23;100.00;101771.69;4970387;28;20209;-74
2022/12/02 07:53:55;;;;;;;34.23;15.47;;;;;;;-0.26;100.00;101774.13;4998406;28;20197;-74
2022/12/02 07:56:23;;;;;;;30.47;15.73;;;;;;;-0.25;100.00;101772.44;5003473;28;20193;-74
2022/12/02 07:58:49;;;;;;;35.90;15.90;;;;;;;-0.28;100.00;101767.19;4989870;28;20589;-74
2022/12/02 08:01:16;;;;;;;35.77;16.17;;;;;;;-0.28;100.00;101777.44;5002276;28;20492;-74
2022/12/02 08:03:43;;;;;;;35.37;15.70;;;;;;;-0.27;100.00;101790.31;4989621;28;20226;-74
2022/12/02 08:06:09;;;;;;;34.40;17.17;;;;;;;-0.27;100.00;101782.63;4988834;28;20208;-74
2022/12/02 08:08:35;;;;;;;52.90;22.13;;;;;;;-0.26;100.00;101786.94;5007097;28;20580;-73
2022/12/02 08:11:02;;;;;;;54.63;21.57;;;;;;;-0.27;100.00;101786.88;4991423;28;20709;-74
2022/12/02 08:13:29;;;;;;;30.27;14.30;;;;;;;-0.31;100.00;101783.34;5006000;28;20205;-74
2022/12/02 08:15:56;;;;;;;30.30;15.03;;;;;;;-0.31;100.00;101782.47;4971771;28;20198;-74
2022/12/02 08:18:22;;;;;;;32.23;16.57;;;;;;;-0.27;100.00;101780.06;4970381;28;20570;-74
2022/12/02 08:20:49;;;;;;;26.90;13.57;;;;;;;-0.29;100.00;101784.25;4987067;28;20201;-74
2022/12/02 08:23:15;;;;;;;30.30;15.20;;;;;;;-0.32;100.00;101784.16;4986230;28;20284;-74
2022/12/02 08:25:42;;;;;;;30.07;13.57;;;;;;;-0.29;100.00;101779.13;4994180;28;20653;-74
2022/12/02 08:28:08;;;;;;;25.60;13.20;;;;;;;-0.28;100.00;101768.09;5003225;28;20228;-74
2022/12/02 08:30:36;;;;;;;28.93;13.30;;;;;;;-0.27;100.00;101774.06;4985246;28;20201;-74
2022/12/02 08:33:02;;;;;;;27.37;12.77;;;;;;;-0.30;100.00;101773.94;4985702;28;20204;-74
2022/12/02 08:35:29;;;;;;;29.53;14.40;;;;;;;-0.29;100.00;101778.28;4969948;28;20201;-74
2022/12/02 08:37:55;;;;;;;27.63;12.13;;;;;;;-0.27;100.00;101772.38;4996288;28;20220;-74
2022/12/02 08:40:22;;;;;;;24.13;12.40;;;;;;;-0.30;100.00;101779.97;4993335;28;20190;-74
2022/12/02 08:42:48;;;;;;;25.70;12.77;;;;;;;-0.31;100.00;101777.34;4986645;28;20206;-74
2022/12/02 08:45:15;;;;;;;25.00;11.23;;;;;;;-0.32;100.00;101776.44;4987312;28;20204;-74
2022/12/02 08:47:43;;;;;;;24.33;10.83;;;;;;;-0.35;100.00;101775.47;4986756;28;20221;-74
2022/12/02 08:50:10;;;;;;;20.10;10.30;;;;;;;-0.33;100.00;101768.75;4984031;28;20542;-74
2022/12/02 08:52:37;;;;;;;21.77;10.50;;;;;;;-0.36;100.00;101781.44;4991437;28;20201;-74
2022/12/02 08:55:04;;;;;;;26.20;11.90;;;;;;;-0.34;100.00;101775.53;4989607;28;20215;-74
2022/12/02 08:57:30;;;;;;;25.60;10.27;;;;;;;-0.35;100.00;101780.59;5006415;28;20220;-74
2022/12/02 08:59:56;;;;;;;22.73;11.87;;;;;;;-0.31;100.00;101783.34;5004000;28;20189;-73
2022/12/02 09:02:23;;;;;;;23.43;10.53;;;;;;;-0.34;100.00;101790.91;4991836;28;20217;-74
2022/12/02 09:04:51;;;;;;;24.43;11.73;;;;;;;-0.31;100.00;101788.47;5006533;28;20197;-74
2022/12/02 09:07:17;;;;;;;23.60;11.67;;;;;;;-0.31;100.00;101788.47;4995763;28;20225;-73
2022/12/02 09:09:45;;;;;;;24.10;10.97;;;;;;;-0.34;100.00;101790.03;4986501;28;20224;-73
2022/12/02 09:12:12;;;;;;;26.90;11.43;;;;;;;-0.33;100.00;101795.22;4998428;28;20219;-74
2022/12/02 09:14:39;;;;;;;22.53;11.03;;;;;;;-0.34;100.00;101788.34;5006825;28;20231;-74
2022/12/02 09:17:05;;;;;;;27.03;12.37;;;;;;;-0.36;100.00;101789.97;5006022;28;20204;-74
2022/12/02 09:19:31;;;;;;;23.40;11.27;;;;;;;-0.37;100.00;101790.78;5006219;28;20197;-74
2022/12/02 09:21:59;;;;;;;24.03;11.80;;;;;;;-0.38;100.00;101783.94;4988851;28;20215;-74
2022/12/02 09:24:25;;;;;;;25.20;12.23;;;;;;;-0.41;100.00;101782.13;5005380;28;20209;-74
2022/12/02 09:26:52;;;;;;;23.33;11.37;;;;;;;-0.43;100.00;101782.88;5004651;28;20201;-74
2022/12/02 09:29:18;;;;;;;24.37;11.83;;;;;;;-0.45;100.00;101784.53;5006691;28;20228;-74
2022/12/02 09:31:45;;;;;;;23.80;12.00;;;;;;;-0.48;100.00;101776.72;4998411;28;20197;-73
2022/12/02 09:34:11;;;;;;;24.00;11.53;;;;;;;-0.49;100.00;101780.06;4994483;28;20213;-74
2022/12/02 09:36:38;;;;;;;28.33;11.93;;;;;;;-0.51;100.00;101774.94;4977788;28;20231;-73
2022/12/02 09:39:05;;;;;;;23.30;11.33;;;;;;;-0.52;100.00;101767.19;5006810;28;20240;-73
2022/12/02 09:41:32;;;;;;;22.53;11.03;;;;;;;-0.50;100.00;101779.22;4977126;28;20632;-74
2022/12/02 09:43:58;;;;;;;24.10;11.63;;;;;;;-0.47;100.00;101770.78;4987481;28;20275;-74
2022/12/02 09:46:25;;;;;;;28.50;12.13;;;;;;;-0.47;100.00;101779.34;4986835;28;20209;-74
2022/12/02 09:48:52;;;;;;;28.17;13.27;;;;;;;-0.48;100.00;101779.28;4987763;28;20243;-74
2022/12/02 09:51:18;;;;;;;26.93;11.80;;;;;;;-0.51;100.00;101768.91;4999433;28;20669;-74
2022/12/02 09:53:46;;;;;;;24.17;11.90;;;;;;;-0.53;100.00;101768.84;5008391;28;20196;-74
2022/12/02 09:56:16;;;;;;;26.07;11.60;;;;;;;-0.50;100.00;101786.03;5006210;28;20269;-73
2022/12/02 09:58:43;;;;;;;24.53;11.50;;;;;;;-0.54;100.00;101782.50;5005463;28;20221;-74
2022/12/02 10:01:10;;;;;;;27.67;12.13;;;;;;;-0.60;100.00;101779.69;4993654;28;20289;-74
2022/12/02 10:03:37;;;;;;;27.47;11.63;;;;;;;-0.58;100.00;101776.38;5001185;28;20192;-74
2022/12/02 10:06:07;;;;;;;24.10;11.83;;;;;;;-0.57;100.00;101775.53;4977069;28;20577;-74
2022/12/02 10:08:34;;;;;;;24.87;11.73;;;;;;;-0.54;100.00;101768.81;4985172;28;20304;-74
2022/12/02 10:11:01;;;;;;;24.03;11.43;;;;;;;-0.54;100.00;101762.00;4968038;28;20208;-73
2022/12/02 10:13:31;;;;;;;24.50;11.07;;;;;;;-0.52;100.00;101767.19;5001487;28;20193;-74
2022/12/02 10:16:01;;;;;;;29.50;12.07;;;;;;;-0.55;100.00;101762.78;5005556;28;20288;-74
2022/12/02 10:18:31;;;;;;;24.03;11.03;;;;;;;-0.52;100.00;101768.03;5004395;28;20248;-74
2022/12/02 10:20:57;;;;;;;23.93;10.67;;;;;;;-0.52;100.00;101764.63;5005462;28;20198;-74
2022/12/02 10:23:25;;;;;;;21.40;10.93;;;;;;;-0.54;100.00;101772.25;4991858;28;20563;-74
2022/12/02 10:25:57;;;;;;;19.73;10.20;;;;;;;-0.59;100.00;101759.25;4992665;28;20196;-74
2022/12/02 10:28:27;;;;;;;23.77;11.43;;;;;;;-0.56;100.00;101761.06;5027570;28;20308;-74
2022/12/02 10:31:00;;;;;;;27.10;11.20;;;;;;;-0.60;100.00;101767.75;5047821;28;20190;-74
2022/12/02 10:33:29;;;;;;;27.13;10.67;;;;;;;-0.61;100.00;101753.19;4991675;28;20189;-74
2022/12/02 10:35:56;;;;;;;21.77;9.77;;;;;;;-0.60;100.00;101752.41;5006064;28;20275;-74
2022/12/02 10:38:38;;;;;;;23.60;10.50;;;;;;;-0.56;100.00;101755.94;5008688;28;20216;-74
2022/12/02 10:41:21;;;;;;;20.87;10.33;;;;;;;-0.57;100.00;101746.50;4997893;28;20211;-74
2022/12/02 10:44:06;;;;;;;19.43;10.37;;;;;;;-0.51;100.00;101750.97;4989864;28;20549;-74
2022/12/02 10:46:33;;;;;;;21.40;9.07;;;;;;;-0.57;100.00;101752.47;5008202;28;20192;-74
2022/12/02 10:49:34;;;;;;;21.20;9.50;;;;;;;-0.54;100.00;101749.19;5001758;28;20213;-74
2022/12/02 10:52:04;;;;;;;22.23;9.47;;;;;;;-0.51;100.00;101759.56;5010731;28;20230;-74
2022/12/02 10:54:33;;;;;;;26.30;10.27;;;;;;;-0.50;100.00;101750.16;5020185;28;20204;-74
2022/12/02 10:57:01;;;;;;;20.43;9.20;;;;;;;-0.52;100.00;101747.53;5018856;28;20219;-74
2022/12/02 10:59:28;;;;;;;21.70;9.53;;;;;;;-0.50;100.00;101742.47;5007898;28;20201;-74
2022/12/02 11:01:56;;;;;;;19.23;9.27;;;;;;;-0.50;100.00;101737.34;5005866;28;20257;-74
2022/12/02 11:04:24;;;;;;;17.83;8.90;;;;;;;-0.50;100.00;101745.91;5008870;28;20680;-74
2022/12/02 11:06:53;;;;;;;16.57;8.00;;;;;;;-0.52;100.00;101742.41;5008239;28;20228;-74
2022/12/02 11:09:22;;;;;;;19.67;9.10;;;;;;;-0.47;100.00;101746.03;5004044;28;20678;-74
2022/12/02 11:11:49;;;;;;;17.97;7.87;;;;;;;-0.45;100.00;101740.97;4989007;28;20189;-74
2022/12/02 11:14:50;;;;;;;19.60;8.80;;;;;;;-0.43;100.00;101736.75;4993399;28;20193;-74